createdAt,value
2023-05-04T00:02:21.698Z,96434.38
2023-05-04T00:04:52.525Z,96444.66
2023-05-04T00:07:23.854Z,96440.88
2023-05-04T00:09:54.009Z,96423.44
2023-05-04T00:12:21.264Z,96432.75
2023-05-04T00:14:48.808Z,96430.88
2023-05-04T00:17:17.263Z,96429.00
2023-05-04T00:19:46.313Z,96430.72
2023-05-04T00:22:14.665Z,96426.25
2023-05-04T00:24:46.937Z,96417.31
2023-05-04T00:27:14.382Z,96417.31
2023-05-04T00:29:41.548Z,96412.84
2023-05-04T00:32:10.011Z,96415.47
2023-05-04T00:34:37.584Z,96414.88
2023-05-04T00:37:08.165Z,96402.81
2023-05-04T00:39:38.999Z,96408.06
2023-05-04T00:42:07.543Z,96397.66
2023-05-04T00:44:37.033Z,96408.66
2023-05-04T00:47:07.345Z,96426.56
2023-05-04T00:49:34.542Z,96422.56
2023-05-04T00:52:02.925Z,96423.28
2023-05-04T00:54:29.892Z,96421.22
2023-05-04T00:56:56.571Z,96419.16
2023-05-04T00:59:23.133Z,96406.69
2023-05-04T01:01:49.667Z,96423.28
2023-05-04T01:04:16.774Z,96420.66
2023-05-04T01:07:03.518Z,96423.28
2023-05-04T01:09:43.090Z,96416.56
2023-05-04T01:12:20.746Z,96418.94
2023-05-04T01:14:48.491Z,96416.28
2023-05-04T01:17:14.992Z,96417.81
2023-05-04T01:19:41.580Z,96418.53
2023-05-04T01:22:08.143Z,96421.31
2023-05-04T01:24:34.925Z,96418.84
2023-05-04T01:27:46.583Z,96416.16
2023-05-04T01:30:23.813Z,96415.59
2023-05-04T01:32:51.311Z,96407.75
2023-05-04T01:35:18.514Z,96419.50
2023-05-04T01:37:47.143Z,96409.19
2023-05-04T01:40:13.743Z,96411.34
2023-05-04T01:42:40.243Z,96423.78
2023-05-04T01:45:07.974Z,96406.66
2023-05-04T01:47:34.805Z,96410.06
2023-05-04T01:50:01.498Z,96413.97
2023-05-04T01:52:28.165Z,96409.97
2023-05-04T01:54:54.674Z,96412.50
2023-05-04T01:57:21.209Z,96405.91
2023-05-04T01:59:47.737Z,96402.72
2023-05-04T02:02:14.308Z,96409.88
2023-05-04T02:04:41.429Z,96399.06
2023-05-04T02:07:08.371Z,96405.34
2023-05-04T02:09:35.505Z,96406.25
2023-05-04T02:12:02.731Z,96409.06
2023-05-04T02:14:29.212Z,96408.28
2023-05-04T02:16:55.978Z,96406.75
2023-05-04T02:19:22.476Z,96413.53
2023-05-04T02:21:49.003Z,96406.69
2023-05-04T02:24:15.492Z,96405.03
2023-05-04T02:26:41.994Z,96411.81
2023-05-04T02:29:08.569Z,96410.44
2023-05-04T02:31:35.379Z,96411.25
2023-05-04T02:34:02.280Z,96401.31
2023-05-04T02:36:29.790Z,96408.09
2023-05-04T02:38:56.388Z,96399.69
2023-05-04T02:41:23.016Z,96400.44
2023-05-04T02:43:51.642Z,96396.97
2023-05-04T02:46:20.010Z,96404.66
2023-05-04T02:48:46.783Z,96401.81
2023-05-04T02:51:13.247Z,96405.88
2023-05-04T02:53:39.777Z,96401.66
2023-05-04T02:56:06.393Z,96401.44
2023-05-04T02:58:32.908Z,96395.94
2023-05-04T03:00:59.554Z,96412.19
2023-05-04T03:03:26.451Z,96401.66
2023-05-04T03:05:53.226Z,96410.00
2023-05-04T03:08:19.782Z,96402.06
2023-05-04T03:10:46.348Z,96407.47
2023-05-04T03:13:13.023Z,96406.69
2023-05-04T03:15:39.697Z,96403.97
2023-05-04T03:18:06.750Z,96402.38
2023-05-04T03:20:34.044Z,96400.81
2023-05-04T03:23:01.398Z,96397.72
2023-05-04T03:25:28.143Z,96390.50
2023-05-04T03:27:55.442Z,96408.13
2023-05-04T03:30:21.924Z,96401.78
2023-05-04T03:32:48.982Z,96394.41
2023-05-04T03:35:17.464Z,96407.72
2023-05-04T03:37:50.248Z,96400.41
2023-05-04T03:40:16.779Z,96404.22
2023-05-04T03:42:43.332Z,96398.28
2023-05-04T03:45:10.666Z,96390.81
2023-05-04T03:47:37.312Z,96394.16
2023-05-04T03:50:04.221Z,96395.50
2023-05-04T03:52:30.974Z,96386.59
2023-05-04T03:54:57.698Z,96391.84
2023-05-04T03:57:24.346Z,96393.44
2023-05-04T03:59:51.875Z,96386.38
2023-05-04T04:02:18.520Z,96390.16
2023-05-04T04:04:45.189Z,96385.69
2023-05-04T04:07:11.822Z,96391.38
2023-05-04T04:09:38.979Z,96389.56
2023-05-04T04:12:05.735Z,96393.09
2023-05-04T04:14:32.239Z,96393.75
2023-05-04T04:16:58.718Z,96390.03
2023-05-04T04:19:25.303Z,96396.84
2023-05-04T04:21:51.811Z,96385.94
2023-05-04T04:24:18.306Z,96389.84
2023-05-04T04:26:44.814Z,96393.34
2023-05-04T04:29:12.204Z,96377.09
2023-05-04T04:31:40.353Z,96382.63
2023-05-04T04:34:06.906Z,96394.31
2023-05-04T04:36:33.819Z,96396.41
2023-05-04T04:39:00.473Z,96392.50
2023-05-04T04:41:27.110Z,96400.41
2023-05-04T04:43:53.608Z,96401.47
2023-05-04T04:46:20.118Z,96396.25
2023-05-04T04:48:47.154Z,96403.91
2023-05-04T04:51:13.765Z,96404.75
2023-05-04T04:53:40.329Z,96406.63
2023-05-04T04:56:10.040Z,96409.03
2023-05-04T04:58:36.600Z,96403.28
2023-05-04T05:01:04.882Z,96404.41
2023-05-04T05:03:32.240Z,96403.66
2023-05-04T05:06:01.668Z,96406.31
2023-05-04T05:08:28.434Z,96409.28
2023-05-04T05:10:54.924Z,96410.19
2023-05-04T05:13:21.513Z,96412.94
2023-05-04T05:15:48.205Z,96407.09
2023-05-04T05:18:14.803Z,96412.13
2023-05-04T05:20:41.303Z,96406.97
2023-05-04T05:23:07.804Z,96404.28
2023-05-04T05:25:34.320Z,96398.28
2023-05-04T05:28:00.794Z,96406.25
2023-05-04T05:30:28.536Z,96413.44
2023-05-04T05:32:55.170Z,96416.09
2023-05-04T05:35:21.968Z,96409.22
2023-05-04T05:37:51.977Z,96409.47
2023-05-04T05:40:19.136Z,96408.69
2023-05-04T05:42:45.685Z,96411.38
2023-05-04T05:45:12.236Z,96409.28
2023-05-04T05:47:38.814Z,96415.88
2023-05-04T05:50:06.503Z,96412.25
2023-05-04T05:52:33.150Z,96408.03
2023-05-04T05:55:02.226Z,96411.44
2023-05-04T05:57:29.381Z,96414.59
2023-05-04T05:59:56.649Z,96413.09
2023-05-04T06:02:23.711Z,96411.47
2023-05-04T06:04:50.459Z,96414.09
2023-05-04T06:07:17.817Z,96414.38
2023-05-04T06:09:44.355Z,96411.53
2023-05-04T06:12:13.535Z,96413.09
2023-05-04T06:14:40.196Z,96408.88
2023-05-04T06:17:06.761Z,96407.84
2023-05-04T06:19:37.971Z,96415.72
2023-05-04T06:22:05.224Z,96404.66
2023-05-04T06:24:32.884Z,96399.91
2023-05-04T06:26:59.442Z,96397.25
2023-05-04T06:29:26.001Z,96404.38
2023-05-04T06:31:52.554Z,96401.19
2023-05-04T06:34:19.223Z,96389.81
2023-05-04T06:36:45.770Z,96396.94
2023-05-04T06:39:12.284Z,96393.53
2023-05-04T06:41:38.870Z,96402.75
2023-05-04T06:44:05.605Z,96392.72
2023-05-04T06:46:35.311Z,96401.84
2023-05-04T06:49:01.816Z,96395.22
2023-05-04T06:51:28.303Z,96389.84
2023-05-04T06:53:54.806Z,96383.28
2023-05-04T06:56:21.829Z,96382.69
2023-05-04T06:58:48.809Z,96390.56
2023-05-04T07:01:17.700Z,96389.00
2023-05-04T07:03:45.261Z,96382.53
2023-05-04T07:06:12.281Z,96391.72
2023-05-04T07:08:39.542Z,96378.19
2023-05-04T07:11:06.060Z,96392.41
2023-05-04T07:13:32.520Z,96391.09
2023-05-04T07:15:59.031Z,96395.28
2023-05-04T07:18:25.505Z,96385.91
2023-05-04T07:20:53.016Z,96393.03
2023-05-04T07:23:22.744Z,96384.41
2023-05-04T07:25:49.244Z,96390.06
2023-05-04T07:28:16.670Z,96384.50
2023-05-04T07:30:43.391Z,96391.44
2023-05-04T07:33:10.109Z,96383.53
2023-05-04T07:35:36.766Z,96379.13
2023-05-04T07:38:03.436Z,96386.56
2023-05-04T07:40:29.914Z,96385.75
2023-05-04T07:42:56.820Z,96385.09
2023-05-04T07:45:23.461Z,96387.75
2023-05-04T07:47:51.890Z,96373.63
2023-05-04T07:50:19.714Z,96377.31
2023-05-04T07:52:47.781Z,96385.44
2023-05-04T07:55:14.282Z,96368.88
2023-05-04T07:57:41.293Z,96368.63
2023-05-04T08:00:09.658Z,96375.03
2023-05-04T08:02:42.161Z,96371.06
2023-05-04T08:05:09.179Z,96369.81
2023-05-04T08:07:36.337Z,96370.50
2023-05-04T08:10:03.831Z,96369.34
2023-05-04T08:12:30.851Z,96377.72
2023-05-04T08:14:57.789Z,96366.78
2023-05-04T08:17:24.553Z,96365.13
2023-05-04T08:19:51.325Z,96371.63
2023-05-04T08:22:18.206Z,96373.84
2023-05-04T08:24:47.352Z,96368.50
2023-05-04T08:27:16.840Z,96366.38
2023-05-04T08:29:43.308Z,96368.91
2023-05-04T08:32:10.041Z,96369.91
2023-05-04T08:34:37.316Z,96357.50
2023-05-04T08:37:04.399Z,96362.91
2023-05-04T08:39:30.989Z,96364.41
2023-05-04T08:41:57.543Z,96349.88
2023-05-04T08:44:24.254Z,96365.91
2023-05-04T08:46:54.200Z,96359.63
2023-05-04T08:49:21.907Z,96365.91
2023-05-04T08:51:53.198Z,96336.59
2023-05-04T08:54:20.981Z,96353.09
2023-05-04T08:56:48.341Z,96362.16
2023-05-04T08:59:23.947Z,96361.09
2023-05-04T09:01:54.951Z,96357.34
2023-05-04T09:04:22.662Z,96359.63
2023-05-04T09:06:49.477Z,96365.44
2023-05-04T09:09:16.242Z,96356.19
2023-05-04T09:11:43.687Z,96360.50
2023-05-04T09:14:10.265Z,96340.44
2023-05-04T09:16:37.941Z,96357.72
2023-05-04T09:19:16.714Z,96351.44
2023-05-04T09:21:44.041Z,96346.88
2023-05-04T09:24:12.526Z,96351.94
2023-05-04T09:26:39.313Z,96347.44
2023-05-04T09:29:13.902Z,96333.25
2023-05-04T09:31:48.769Z,96339.16
2023-05-04T09:34:15.488Z,96349.78
2023-05-04T09:36:44.809Z,96340.94
2023-05-04T09:39:15.741Z,96334.56
2023-05-04T09:41:42.476Z,96340.53
2023-05-04T09:44:22.477Z,96337.81
2023-05-04T09:46:55.839Z,96343.69
2023-05-04T09:49:40.878Z,96332.22
2023-05-04T09:52:07.408Z,96336.94
2023-05-04T09:54:35.837Z,96332.25
2023-05-04T09:57:23.529Z,96333.66
2023-05-04T09:59:51.225Z,96326.13
2023-05-04T10:02:23.022Z,96323.00
2023-05-04T10:04:51.579Z,96316.13
2023-05-04T10:07:19.120Z,96319.56
2023-05-04T10:09:47.413Z,96325.19
2023-05-04T10:12:14.481Z,96313.84
2023-05-04T10:14:42.783Z,96314.50
2023-05-04T10:17:25.950Z,96317.81
2023-05-04T10:19:58.086Z,96315.50
2023-05-04T10:22:54.918Z,96311.75
2023-05-04T10:25:30.746Z,96315.53
2023-05-04T10:28:37.513Z,96308.81
2023-05-04T10:31:06.253Z,96306.16
2023-05-04T10:33:43.125Z,96303.00
2023-05-04T10:36:10.551Z,96300.94
2023-05-04T10:38:40.017Z,96303.81
2023-05-04T10:41:19.477Z,96294.41
2023-05-04T10:43:52.941Z,96299.25
2023-05-04T10:46:23.938Z,96268.34
2023-05-04T10:48:51.037Z,96297.94
2023-05-04T10:51:22.501Z,96289.75
2023-05-04T10:53:49.264Z,96287.66
2023-05-04T10:56:23.127Z,96288.34
2023-05-04T10:58:50.004Z,96291.78
2023-05-04T11:01:17.575Z,96283.84
2023-05-04T11:03:44.460Z,96280.38
2023-05-04T11:06:24.090Z,96285.50
2023-05-04T11:09:01.692Z,96276.63
2023-05-04T11:11:28.318Z,96280.88
2023-05-04T11:13:56.660Z,96277.38
2023-05-04T11:16:24.645Z,96272.34
2023-05-04T11:18:51.420Z,96269.34
2023-05-04T11:21:27.325Z,96270.84
2023-05-04T11:23:58.289Z,96268.75
2023-05-04T11:26:25.949Z,96268.53
2023-05-04T11:28:52.560Z,96264.84
2023-05-04T11:31:20.936Z,96264.91
2023-05-04T11:33:53.160Z,96251.31
2023-05-04T11:36:20.272Z,96256.00
2023-05-04T11:38:47.562Z,96253.06
2023-05-04T11:41:14.244Z,96247.66
2023-05-04T11:43:43.894Z,96237.34
2023-05-04T11:46:11.244Z,96237.34
2023-05-04T11:48:38.591Z,96233.88
2023-05-04T11:51:06.577Z,96224.63
2023-05-04T11:53:40.751Z,96229.16
2023-05-04T11:56:10.757Z,96224.19
2023-05-04T11:58:37.714Z,96226.88
2023-05-04T12:01:04.893Z,96227.25
2023-05-04T12:03:48.529Z,96221.25
2023-05-04T12:06:20.130Z,96211.53
2023-05-04T12:08:46.809Z,96203.50
2023-05-04T12:11:25.126Z,96210.63
2023-05-04T12:14:11.868Z,96204.91
2023-05-04T12:16:39.524Z,96194.44
2023-05-04T12:19:08.810Z,96201.63
2023-05-04T12:21:36.116Z,96206.44
2023-05-04T12:24:04.049Z,96198.66
2023-05-04T12:26:30.639Z,96189.81
2023-05-04T12:28:57.338Z,96193.78
2023-05-04T12:31:25.383Z,96185.38
2023-05-04T12:33:52.528Z,96201.72
2023-05-04T12:36:19.215Z,96190.72
2023-05-04T12:38:46.133Z,96196.59
2023-05-04T12:41:12.750Z,96181.97
2023-05-04T12:43:39.548Z,96194.66
2023-05-04T12:46:06.800Z,96178.28
2023-05-04T12:48:33.566Z,96190.22
2023-05-04T12:51:01.736Z,96183.16
2023-05-04T12:53:30.044Z,96185.06
2023-05-04T12:55:57.211Z,96180.25
2023-05-04T12:58:23.784Z,96180.84
2023-05-04T13:00:50.718Z,96181.44
2023-05-04T13:03:18.499Z,96174.03
2023-05-04T13:05:49.892Z,96173.28
2023-05-04T13:08:18.225Z,96168.59
2023-05-04T13:10:46.210Z,96165.13
2023-05-04T13:13:15.142Z,96172.88
2023-05-04T13:15:42.310Z,96164.38
2023-05-04T13:18:08.784Z,96163.88
2023-05-04T13:20:35.381Z,96155.41
2023-05-04T13:23:01.878Z,96159.63
2023-05-04T13:25:28.418Z,96145.63
2023-05-04T13:27:55.218Z,96153.97
2023-05-04T13:30:21.966Z,96151.13
2023-05-04T13:32:49.135Z,96160.97
2023-05-04T13:35:16.154Z,96149.09
2023-05-04T13:37:42.638Z,96145.59
2023-05-04T13:40:09.940Z,96129.28
2023-05-04T13:42:37.397Z,96139.22
2023-05-04T13:45:04.929Z,96139.84
2023-05-04T13:47:33.714Z,96121.56
2023-05-04T13:50:00.391Z,96123.72
2023-05-04T13:52:27.130Z,96113.94
2023-05-04T13:54:53.686Z,96103.31
2023-05-04T13:57:20.157Z,96105.78
2023-05-04T14:00:02.458Z,96115.94
2023-05-04T14:02:37.251Z,96115.09
2023-05-04T14:05:04.157Z,96112.03
2023-05-04T14:07:30.955Z,96106.81
2023-05-04T14:09:58.787Z,96108.47
2023-05-04T14:12:25.300Z,96102.00
2023-05-04T14:14:51.842Z,96105.00
2023-05-04T14:17:18.559Z,96098.00
2023-05-04T14:19:45.239Z,96090.56
2023-05-04T14:22:11.716Z,96090.28
2023-05-04T14:24:38.326Z,96091.59
2023-05-04T14:27:04.961Z,96098.69
2023-05-04T14:29:33.211Z,96087.34
2023-05-04T14:32:00.713Z,96092.94
2023-05-04T14:34:28.336Z,96088.91
2023-05-04T14:36:54.856Z,96093.16
2023-05-04T14:39:21.340Z,96090.06
2023-05-04T14:41:48.020Z,96087.16
2023-05-04T14:44:14.591Z,96087.28
2023-05-04T14:46:41.309Z,96092.63
2023-05-04T14:49:07.762Z,96079.34
2023-05-04T14:51:35.475Z,96083.06
2023-05-04T14:54:04.393Z,96078.50
2023-05-04T14:56:30.870Z,96078.94
2023-05-04T14:58:57.346Z,96080.31
2023-05-04T15:01:27.219Z,96080.50
2023-05-04T15:03:53.850Z,96077.38
2023-05-04T15:06:20.518Z,96075.19
2023-05-04T15:08:47.053Z,96084.66
2023-05-04T15:11:13.904Z,96081.06
2023-05-04T15:13:40.418Z,96079.53
2023-05-04T15:16:07.537Z,96079.53
2023-05-04T15:18:34.046Z,96070.50
2023-05-04T15:21:00.596Z,96072.66
2023-05-04T15:23:27.383Z,96069.44
2023-05-04T15:25:53.878Z,96067.63
2023-05-04T15:28:22.793Z,96068.06
2023-05-04T15:30:49.390Z,96068.50
2023-05-04T15:33:15.968Z,96071.84
2023-05-04T15:35:42.697Z,96066.25
2023-05-04T15:38:09.315Z,96058.53
2023-05-04T15:40:36.328Z,96068.06
2023-05-04T15:43:03.692Z,96060.59
2023-05-04T15:45:30.341Z,96063.81
2023-05-04T15:47:59.361Z,96059.66
2023-05-04T15:50:26.294Z,96064.03
2023-05-04T15:52:53.044Z,96066.50
2023-05-04T15:55:26.010Z,96063.16
2023-05-04T15:57:54.054Z,96056.53
2023-05-04T16:00:21.239Z,96061.34
2023-05-04T16:02:48.034Z,96061.31
2023-05-04T16:05:14.775Z,96053.31
2023-05-04T16:07:41.296Z,96062.00
2023-05-04T16:10:08.849Z,96052.75
2023-05-04T16:12:35.761Z,96052.66
2023-05-04T16:15:02.300Z,96054.75
2023-05-04T16:17:30.506Z,96051.09
2023-05-04T16:19:57.070Z,96042.19
2023-05-04T16:22:23.550Z,96041.84
2023-05-04T16:24:50.024Z,96040.63
2023-05-04T16:27:16.537Z,96037.84
2023-05-04T16:29:43.096Z,96036.72
2023-05-04T16:32:09.631Z,96035.03
2023-05-04T16:34:36.086Z,96031.59
2023-05-04T16:37:02.712Z,96032.34
2023-05-04T16:39:31.243Z,96039.25
2023-05-04T16:41:58.451Z,96034.56
2023-05-04T16:44:25.406Z,96037.78
2023-05-04T16:46:53.974Z,96033.91
2023-05-04T16:49:21.907Z,96042.34
2023-05-04T16:51:48.551Z,96030.31
2023-05-04T16:54:16.390Z,96024.19
2023-05-04T16:56:42.918Z,96026.59
2023-05-04T16:59:09.498Z,96021.56
2023-05-04T17:01:36.064Z,96025.22
2023-05-04T17:04:02.928Z,96031.81
2023-05-04T17:06:29.533Z,96027.56
2023-05-04T17:08:56.302Z,96029.13
2023-05-04T17:11:24.084Z,96022.97
2023-05-04T17:13:51.150Z,96013.47
2023-05-04T17:16:17.848Z,96018.38
2023-05-04T17:18:45.837Z,96030.31
2023-05-04T17:21:12.643Z,96025.56
2023-05-04T17:23:39.154Z,96030.63
2023-05-04T17:26:06.413Z,96025.94
2023-05-04T17:28:32.912Z,96010.84
2023-05-04T17:30:59.432Z,96024.44
2023-05-04T17:33:25.945Z,96024.00
2023-05-04T17:35:52.588Z,96022.75
2023-05-04T17:38:19.161Z,96023.13
2023-05-04T17:40:45.846Z,96021.31
2023-05-04T17:43:12.399Z,96023.88
2023-05-04T17:45:38.945Z,96023.09
2023-05-04T17:48:06.269Z,96018.28
2023-05-04T17:50:32.837Z,96030.50
2023-05-04T17:52:59.335Z,96035.72
2023-05-04T17:55:26.048Z,96039.19
2023-05-04T17:57:53.964Z,96031.69
2023-05-04T18:00:21.002Z,96029.34
2023-05-04T18:02:47.668Z,96034.22
2023-05-04T18:05:14.253Z,96036.75
2023-05-04T18:07:40.787Z,96034.25
2023-05-04T18:10:08.074Z,96038.53
2023-05-04T18:12:35.647Z,96041.22
2023-05-04T18:15:08.087Z,96042.97
2023-05-04T18:17:35.895Z,96037.47
2023-05-04T18:20:02.532Z,96028.25
2023-05-04T18:22:29.011Z,96042.97
2023-05-04T18:24:55.565Z,96045.00
2023-05-04T18:27:22.246Z,96050.03
2023-05-04T18:29:48.828Z,96051.00
2023-05-04T18:32:15.339Z,96055.53
2023-05-04T18:34:42.097Z,96053.16
2023-05-04T18:37:08.833Z,96062.09
2023-05-04T18:39:35.298Z,96068.06
2023-05-04T18:42:01.867Z,96058.66
2023-05-04T18:44:28.397Z,96060.88
2023-05-04T18:46:55.058Z,96067.59
2023-05-04T18:49:21.587Z,96064.63
2023-05-04T18:51:48.219Z,96063.03
2023-05-04T18:54:16.100Z,96047.41
2023-05-04T18:56:43.398Z,96075.13
2023-05-04T18:59:10.800Z,96063.38
2023-05-04T19:01:38.563Z,96079.81
2023-05-04T19:04:05.584Z,96085.28
2023-05-04T19:06:32.962Z,96090.13
2023-05-04T19:08:59.757Z,96079.28
2023-05-04T19:11:26.590Z,96093.41
2023-05-04T19:13:53.307Z,96091.06
2023-05-04T19:16:20.013Z,96097.59
2023-05-04T19:18:47.299Z,96100.53
2023-05-04T19:21:13.854Z,96099.28
2023-05-04T19:23:40.348Z,96104.13
2023-05-04T19:26:06.957Z,96104.44
2023-05-04T19:28:33.529Z,96099.72
2023-05-04T19:31:00.463Z,96105.34
2023-05-04T19:33:40.337Z,96108.13
2023-05-04T19:36:13.934Z,96102.03
2023-05-04T19:38:40.748Z,96104.19
2023-05-04T19:41:07.332Z,96102.75
2023-05-04T19:43:33.852Z,96100.72
2023-05-04T19:46:02.249Z,96104.16
2023-05-04T19:48:28.802Z,96106.47
2023-05-04T19:50:55.995Z,96110.81
2023-05-04T19:53:22.582Z,96105.03
2023-05-04T19:55:49.090Z,96104.09
2023-05-04T19:58:15.913Z,96101.84
2023-05-04T20:00:42.463Z,96108.13
2023-05-04T20:03:09.053Z,96096.78
2023-05-04T20:05:35.702Z,96108.50
2023-05-04T20:08:04.831Z,96111.31
2023-05-04T20:10:31.873Z,96110.78
2023-05-04T20:12:58.435Z,96102.66
2023-05-04T20:15:25.204Z,96101.03
2023-05-04T20:17:51.975Z,96103.25
2023-05-04T20:20:20.460Z,96107.75
2023-05-04T20:22:49.146Z,96112.41
2023-05-04T20:25:15.777Z,96091.47
2023-05-04T20:27:42.408Z,96107.41
2023-05-04T20:30:09.895Z,96106.44
2023-05-04T20:32:36.571Z,96082.28
2023-05-04T20:35:03.790Z,96098.38
2023-05-04T20:37:30.425Z,96097.56
2023-05-04T20:39:57.196Z,96099.06
2023-05-04T20:42:24.587Z,96093.69
2023-05-04T20:44:51.301Z,96101.00
2023-05-04T20:47:18.474Z,96099.41
2023-05-04T20:49:45.061Z,96100.91
2023-05-04T20:52:11.582Z,96098.56
2023-05-04T20:54:38.084Z,96092.38
2023-05-04T20:57:04.749Z,96094.38
2023-05-04T20:59:31.352Z,96102.91
2023-05-04T21:01:57.867Z,96095.97
2023-05-04T21:04:24.432Z,96099.22
2023-05-04T21:06:51.078Z,96093.53
2023-05-04T21:09:17.623Z,96092.94
2023-05-04T21:11:44.172Z,96098.66
2023-05-04T21:14:10.903Z,96099.34
2023-05-04T21:16:38.468Z,96096.97
2023-05-04T21:19:04.957Z,96096.81
2023-05-04T21:21:32.210Z,96097.59
2023-05-04T21:23:58.711Z,96094.06
2023-05-04T21:26:25.280Z,96089.41
2023-05-04T21:28:52.240Z,96082.34
2023-05-04T21:31:18.949Z,96086.81
2023-05-04T21:33:45.521Z,96081.41
2023-05-04T21:36:16.164Z,96089.34
2023-05-04T21:38:43.253Z,96077.81
2023-05-04T21:41:14.619Z,96078.06
2023-05-04T21:43:41.776Z,96080.56
2023-05-04T21:46:09.136Z,96075.56
2023-05-04T21:48:36.025Z,96076.72
2023-05-04T21:51:02.519Z,96072.50
2023-05-04T21:53:33.277Z,96077.31
2023-05-04T21:56:01.116Z,96068.69
2023-05-04T21:58:27.734Z,96070.34
2023-05-04T22:00:54.817Z,96062.31
2023-05-04T22:03:21.715Z,96074.44
2023-05-04T22:05:57.516Z,96071.34
2023-05-04T22:08:25.156Z,96064.78
2023-05-04T22:10:52.592Z,96065.47
2023-05-04T22:13:19.785Z,96071.03
2023-05-04T22:15:49.734Z,96063.69
2023-05-04T22:18:17.163Z,96058.41
2023-05-04T22:20:43.704Z,96062.06
2023-05-04T22:23:10.603Z,96055.13
2023-05-04T22:25:37.631Z,96060.75
2023-05-04T22:28:04.348Z,96069.84
2023-05-04T22:30:31.026Z,96057.44
2023-05-04T22:32:57.938Z,96055.06
2023-05-04T22:35:24.586Z,96054.41
2023-05-04T22:37:51.147Z,96060.97
2023-05-04T22:40:17.758Z,96046.06
2023-05-04T22:42:47.525Z,96057.38
2023-05-04T22:45:14.807Z,96068.50
2023-05-04T22:47:42.165Z,96070.09
2023-05-04T22:50:09.956Z,96061.19
2023-05-04T22:52:37.575Z,96067.78
2023-05-04T22:55:05.737Z,96069.38
2023-05-04T22:57:32.305Z,96073.91
2023-05-04T22:59:58.801Z,96076.03
2023-05-04T23:02:25.647Z,96070.81
2023-05-04T23:04:53.183Z,96074.94
2023-05-04T23:07:20.244Z,96073.91
2023-05-04T23:09:47.116Z,96085.66
2023-05-04T23:12:14.015Z,96079.63
2023-05-04T23:14:40.946Z,96083.66
2023-05-04T23:17:07.737Z,96086.34
2023-05-04T23:19:34.252Z,96082.22
2023-05-04T23:22:00.942Z,96080.03
2023-05-04T23:24:27.456Z,96082.22
2023-05-04T23:26:54.139Z,96078.50
2023-05-04T23:29:20.828Z,96079.28
2023-05-04T23:31:47.371Z,96081.72
2023-05-04T23:34:13.962Z,96083.91
2023-05-04T23:36:40.460Z,96083.41
2023-05-04T23:39:07.105Z,96073.41
2023-05-04T23:41:34.151Z,96068.66
2023-05-04T23:44:01.791Z,96071.84
2023-05-04T23:46:28.363Z,96082.19
2023-05-04T23:48:55.040Z,96086.91
2023-05-04T23:51:21.572Z,96058.50
2023-05-04T23:53:48.205Z,96068.56
2023-05-04T23:56:14.772Z,96065.91
2023-05-04T23:58:41.979Z,96072.53
